Terminal Aerodrome Forecast
Issued by NWS Sioux Falls, SD

Home | Current Version | Previous Version | Text Only | Print | Product List | Glossary Off
Versions: 1 2 3 4 5 6 7 8 9 10 11 12 13

000
FTUS43 KFSD 191126
TAFHON
TAF
KHON 191126Z 1912/2012 00000KT 3SM BR FEW050
     FM191400 19002KT 5SM BR FEW040
     FM191500 20004KT P6SM FEW100
     FM200200 13005KT P6SM FEW030=

USA.gov is the U.S. government's official web portal to all federal, state and local government web resources and services.